sensor_id;sensor_type;location;lat;lon;timestamp;pressure;altitude;pressure_sealevel;temperature;humidity
6833;BME280;3454;42.654;23.378;2023-05-21T00:00:15;64550.88;;;15.13;100.00
6833;BME280;3454;42.654;23.378;2023-05-21T00:02:40;64556.91;;;15.19;100.00
6833;BME280;3454;42.654;23.378;2023-05-21T00:05:07;64539.88;;;15.03;100.00
6833;BME280;3454;42.654;23.378;2023-05-21T00:07:37;64534.75;;;14.96;100.00
6833;BME280;3454;42.654;23.378;2023-05-21T00:10:03;64526.34;;;14.93;100.00
6833;BME280;3454;42.654;23.378;2023-05-21T00:12:29;64524.84;;;14.87;100.00
6833;BME280;3454;42.654;23.378;2023-05-21T00:14:54;64530.88;;;14.93;100.00
6833;BME280;3454;42.654;23.378;2023-05-21T00:17:19;64533.06;;;14.95;100.00
6833;BME280;3454;42.654;23.378;2023-05-21T00:19:45;64546.47;;;15.09;100.00
6833;BME280;3454;42.654;23.378;2023-05-21T00:22:10;64541.00;;;15.04;100.00
6833;BME280;3454;42.654;23.378;2023-05-21T00:24:36;64542.63;;;15.06;100.00
6833;BME280;3454;42.654;23.378;2023-05-21T00:27:01;64539.34;;;15.03;100.00
6833;BME280;3454;42.654;23.378;2023-05-21T00:29:26;64535.50;;;14.99;100.00
6833;BME280;3454;42.654;23.378;2023-05-21T00:31:54;64550.66;;;15.11;100.00
6833;BME280;3454;42.654;23.378;2023-05-21T00:34:20;64555.63;;;15.15;100.00
6833;BME280;3454;42.654;23.378;2023-05-21T00:36:45;64536.25;;;15.02;100.00
6833;BME280;3454;42.654;23.378;2023-05-21T00:39:12;64542.97;;;15.04;100.00
6833;BME280;3454;42.654;23.378;2023-05-21T00:41:38;64541.00;;;15.04;100.00
6833;BME280;3454;42.654;23.378;2023-05-21T00:44:07;64525.25;;;14.92;100.00
6833;BME280;3454;42.654;23.378;2023-05-21T00:46:40;64511.09;;;14.75;100.00
6833;BME280;3454;42.654;23.378;2023-05-21T00:49:05;64507.47;;;14.74;100.00
6833;BME280;3454;42.654;23.378;2023-05-21T00:51:31;64504.38;;;14.73;100.00
6833;BME280;3454;42.654;23.378;2023-05-21T00:53:57;64518.78;;;14.82;100.00
6833;BME280;3454;42.654;23.378;2023-05-21T00:56:24;64499.97;;;14.69;100.00
6833;BME280;3454;42.654;23.378;2023-05-21T00:58:51;64485.81;;;14.52;100.00
6833;BME280;3454;42.654;23.378;2023-05-21T01:01:17;64482.72;;;14.51;100.00
6833;BME280;3454;42.654;23.378;2023-05-21T01:03:43;64475.06;;;14.44;100.00
6833;BME280;3454;42.654;23.378;2023-05-21T01:06:09;64466.25;;;14.36;100.00
6833;BME280;3454;42.654;23.378;2023-05-21T01:08:35;64467.34;;;14.37;100.00
6833;BME280;3454;42.654;23.378;2023-05-21T01:11:05;64460.19;;;14.30;100.00
6833;BME280;3454;42.654;23.378;2023-05-21T01:13:33;64424.81;;;13.96;100.00
6833;BME280;3454;42.654;23.378;2023-05-21T01:16:01;64405.25;;;13.80;100.00
6833;BME280;3454;42.654;23.378;2023-05-21T01:18:27;64419.34;;;13.91;100.00
6833;BME280;3454;42.654;23.378;2023-05-21T01:20:53;64435.47;;;14.08;100.00
6833;BME280;3454;42.654;23.378;2023-05-21T01:23:19;64469.53;;;14.39;100.00
6833;BME280;3454;42.654;23.378;2023-05-21T01:25:45;64494.28;;;14.62;100.00
6833;BME280;3454;42.654;23.378;2023-05-21T01:28:12;64499.75;;;14.67;100.00
6833;BME280;3454;42.654;23.378;2023-05-21T01:30:40;64492.97;;;14.58;100.00
6833;BME280;3454;42.654;23.378;2023-05-21T01:35:57;64499.75;;;14.67;100.00
6833;BME280;3454;42.654;23.378;2023-05-21T01:38:42;64501.75;;;14.66;100.00
6833;BME280;3454;42.654;23.378;2023-05-21T01:41:13;64511.31;;;14.77;100.00
6833;BME280;3454;42.654;23.378;2023-05-21T01:43:43;64535.50;;;14.99;100.00
6833;BME280;3454;42.654;23.378;2023-05-21T01:46:12;64519.53;;;14.85;100.00
6833;BME280;3454;42.654;23.378;2023-05-21T01:48:40;64513.84;;;14.77;100.00
6833;BME280;3454;42.654;23.378;2023-05-21T01:51:06;64484.94;;;14.53;100.00
6833;BME280;3454;42.654;23.378;2023-05-21T01:53:31;64499.56;;;14.64;100.00
6833;BME280;3454;42.654;23.378;2023-05-21T01:55:57;64504.72;;;14.71;100.00
6833;BME280;3454;42.654;23.378;2023-05-21T01:58:23;64501.28;;;14.73;100.00
6833;BME280;3454;42.654;23.378;2023-05-21T02:00:49;64506.16;;;14.70;100.00
6833;BME280;3454;42.654;23.378;2023-05-21T02:03:19;64510.75;;;14.77;100.00
6833;BME280;3454;42.654;23.378;2023-05-21T02:05:45;64513.50;;;14.79;100.00
6833;BME280;3454;42.654;23.378;2023-05-21T02:08:11;64514.41;;;14.78;100.00
6833;BME280;3454;42.654;23.378;2023-05-21T02:10:39;64531.09;;;14.95;100.00
6833;BME280;3454;42.654;23.378;2023-05-21T02:13:04;64533.50;;;15.00;100.00
6833;BME280;3454;42.654;23.378;2023-05-21T02:15:30;64524.50;;;14.89;100.00
6833;BME280;3454;42.654;23.378;2023-05-21T02:17:58;64494.28;;;14.62;100.00
6833;BME280;3454;42.654;23.378;2023-05-21T02:20:24;64477.03;;;14.44;100.00
6833;BME280;3454;42.654;23.378;2023-05-21T02:22:49;64470.66;;;14.40;100.00
6833;BME280;3454;42.654;23.378;2023-05-21T02:25:16;64454.16;;;14.25;100.00
6833;BME280;3454;42.654;23.378;2023-05-21T02:27:42;64451.41;;;14.22;100.00
6833;BME280;3454;42.654;23.378;2023-05-21T02:30:13;64436.56;;;14.09;100.00
6833;BME280;3454;42.654;23.378;2023-05-21T02:32:39;64443.50;;;14.13;100.00
6833;BME280;3454;42.654;23.378;2023-05-21T02:35:10;64465.16;;;14.35;100.00
6833;BME280;3454;42.654;23.378;2023-05-21T02:37:36;64478.69;;;14.45;100.00
6833;BME280;3454;42.654;23.378;2023-05-21T02:40:03;64467.91;;;14.38;100.00
6833;BME280;3454;42.654;23.378;2023-05-21T02:42:32;64481.66;;;14.50;100.00
6833;BME280;3454;42.654;23.378;2023-05-21T02:44:58;64457.47;;;14.28;100.00
6833;BME280;3454;42.654;23.378;2023-05-21T02:47:23;64451.94;;;14.23;100.00
6833;BME280;3454;42.654;23.378;2023-05-21T02:49:50;64475.59;;;14.45;100.00
6833;BME280;3454;42.654;23.378;2023-05-21T02:52:16;64495.91;;;14.63;100.00
6833;BME280;3454;42.654;23.378;2023-05-21T02:54:43;64474.50;;;14.44;100.00
6833;BME280;3454;42.654;23.378;2023-05-21T02:57:09;64446.47;;;14.18;100.00
6833;BME280;3454;42.654;23.378;2023-05-21T02:59:34;64455.59;;;14.24;100.00
6833;BME280;3454;42.654;23.378;2023-05-21T03:01:59;64470.31;;;14.42;100.00
6833;BME280;3454;42.654;23.378;2023-05-21T03:04:25;64467.34;;;14.37;100.00
6833;BME280;3454;42.654;23.378;2023-05-21T03:06:52;64462.97;;;14.33;100.00
6833;BME280;3454;42.654;23.378;2023-05-21T03:09:20;64476.47;;;14.43;100.00
6833;BME280;3454;42.654;23.378;2023-05-21T03:11:46;64471.53;;;14.39;100.00
6833;BME280;3454;42.654;23.378;2023-05-21T03:14:11;64457.66;;;14.30;100.00
6833;BME280;3454;42.654;23.378;2023-05-21T03:16:37;64467.13;;;14.35;100.00
6833;BME280;3454;42.654;23.378;2023-05-21T03:19:06;64480.53;;;14.49;100.00
6833;BME280;3454;42.654;23.378;2023-05-21T03:21:32;64479.78;;;14.46;100.00
6833;BME280;3454;42.654;23.378;2023-05-21T03:23:58;64482.50;;;14.49;100.00
6833;BME280;3454;42.654;23.378;2023-05-21T03:26:24;64483.06;;;14.49;100.00
6833;BME280;3454;42.654;23.378;2023-05-21T03:28:52;64508.34;;;14.72;100.00
6833;BME280;3454;42.654;23.378;2023-05-21T03:31:17;64514.63;;;14.80;100.00
6833;BME280;3454;42.654;23.378;2023-05-21T03:33:43;64514.06;;;14.80;100.00
6833;BME280;3454;42.654;23.378;2023-05-21T03:36:08;64500.31;;;14.67;100.00
6833;BME280;3454;42.654;23.378;2023-05-21T03:38:34;64495.16;;;14.60;100.00
6833;BME280;3454;42.654;23.378;2023-05-21T03:40:59;64519.00;;;14.84;100.00
6833;BME280;3454;42.654;23.378;2023-05-21T03:43:25;64495.38;;;14.63;100.00
6833;BME280;3454;42.654;23.378;2023-05-21T03:45:50;64482.72;;;14.51;100.00
6833;BME280;3454;42.654;23.378;2023-05-21T03:48:15;64484.94;;;14.53;100.00
6833;BME280;3454;42.654;23.378;2023-05-21T03:50:42;64489.88;;;14.58;100.00
6833;BME280;3454;42.654;23.378;2023-05-21T03:53:07;64497.38;;;14.62;100.00
6833;BME280;3454;42.654;23.378;2023-05-21T03:55:34;64490.97;;;14.59;100.00
6833;BME280;3454;42.654;23.378;2023-05-21T03:58:00;64508.88;;;14.73;100.00
6833;BME280;3454;42.654;23.378;2023-05-21T04:00:25;64510.75;;;14.77;100.00
6833;BME280;3454;42.654;23.378;2023-05-21T04:02:51;64505.59;;;14.70;100.00
6833;BME280;3454;42.654;23.378;2023-05-21T04:05:16;64530.34;;;14.92;100.00
6833;BME280;3454;42.654;23.378;2023-05-21T04:07:42;64531.09;;;14.95;100.00
6833;BME280;3454;42.654;23.378;2023-05-21T04:10:11;64523.59;;;14.91;100.00
6833;BME280;3454;42.654;23.378;2023-05-21T04:12:37;64517.91;;;14.83;100.00
6833;BME280;3454;42.654;23.378;2023-05-21T04:15:02;64531.66;;;14.96;100.00
6833;BME280;3454;42.654;23.378;2023-05-21T04:17:28;64542.44;;;15.03;100.00
6833;BME280;3454;42.654;23.378;2023-05-21T04:19:53;64536.94;;;14.98;100.00
6833;BME280;3454;42.654;23.378;2023-05-21T04:22:19;64527.03;;;14.89;100.00
6833;BME280;3454;42.654;23.378;2023-05-21T04:24:45;64512.94;;;14.79;100.00
6833;BME280;3454;42.654;23.378;2023-05-21T04:27:11;64505.47;;;14.74;100.00
6833;BME280;3454;42.654;23.378;2023-05-21T04:29:38;64526.34;;;14.93;100.00
6833;BME280;3454;42.654;23.378;2023-05-21T04:32:07;64531.09;;;14.95;100.00
6833;BME280;3454;42.654;23.378;2023-05-21T04:34:32;64541.75;;;15.07;100.00
6833;BME280;3454;42.654;23.378;2023-05-21T04:36:58;64539.53;;;15.05;100.00
6833;BME280;3454;42.654;23.378;2023-05-21T04:39:24;64536.59;;;15.00;100.00
6833;BME280;3454;42.654;23.378;2023-05-21T04:41:49;64537.13;;;15.01;100.00
6833;BME280;3454;42.654;23.378;2023-05-21T04:44:18;64530.34;;;14.92;100.00
6833;BME280;3454;42.654;23.378;2023-05-21T04:46:44;64530.53;;;14.95;100.00
6833;BME280;3454;42.654;23.378;2023-05-21T04:49:10;64534.75;;;14.96;100.00
6833;BME280;3454;42.654;23.378;2023-05-21T04:51:35;64555.63;;;15.15;100.00
6833;BME280;3454;42.654;23.378;2023-05-21T04:54:02;64552.53;;;15.15;100.00
6833;BME280;3454;42.654;23.378;2023-05-21T04:56:28;64553.06;;;15.15;100.00
6833;BME280;3454;42.654;23.378;2023-05-21T04:58:53;64563.53;;;15.25;100.00
6833;BME280;3454;42.654;23.378;2023-05-21T05:01:19;64593.03;;;15.50;100.00
6833;BME280;3454;42.654;23.378;2023-05-21T05:03:47;64574.72;;;15.38;100.00
6833;BME280;3454;42.654;23.378;2023-05-21T05:06:13;64586.09;;;15.46;100.00
6833;BME280;3454;42.654;23.378;2023-05-21T05:08:38;64561.31;;;15.23;100.00
6833;BME280;3454;42.654;23.378;2023-05-21T05:11:04;64549.78;;;15.12;100.00
6833;BME280;3454;42.654;23.378;2023-05-21T05:13:30;64556.72;;;15.17;100.00
6833;BME280;3454;42.654;23.378;2023-05-21T05:15:55;64551.22;;;15.11;100.00
6833;BME280;3454;42.654;23.378;2023-05-21T05:18:21;64549.56;;;15.10;100.00
6833;BME280;3454;42.654;23.378;2023-05-21T05:20:47;64561.66;;;15.21;100.00
6833;BME280;3454;42.654;23.378;2023-05-21T05:23:13;64605.69;;;15.61;100.00
6833;BME280;3454;42.654;23.378;2023-05-21T05:25:38;64607.00;;;15.65;100.00
6833;BME280;3454;42.654;23.378;2023-05-21T05:28:04;64644.41;;;15.99;100.00
6833;BME280;3454;42.654;23.378;2023-05-21T05:30:29;64635.59;;;15.91;100.00
6833;BME280;3454;42.654;23.378;2023-05-21T05:32:55;64623.50;;;15.80;100.00
6833;BME280;3454;42.654;23.378;2023-05-21T05:35:20;64635.94;;;15.89;99.78
6833;BME280;3454;42.654;23.378;2023-05-21T05:37:46;64637.03;;;15.90;100.00
6833;BME280;3454;42.654;23.378;2023-05-21T05:40:11;64634.72;;;15.92;100.00
6833;BME280;3454;42.654;23.378;2023-05-21T05:42:36;64641.09;;;15.96;100.00
6833;BME280;3454;42.654;23.378;2023-05-21T05:45:02;64669.19;;;16.22;99.89
6833;BME280;3454;42.654;23.378;2023-05-21T05:47:27;64662.34;;;16.13;100.00
6833;BME280;3454;42.654;23.378;2023-05-21T05:49:53;64660.91;;;16.14;100.00
6833;BME280;3454;42.654;23.378;2023-05-21T05:52:19;64645.50;;;16.00;100.00
6833;BME280;3454;42.654;23.378;2023-05-21T05:54:44;64669.72;;;16.22;100.00
6833;BME280;3454;42.654;23.378;2023-05-21T05:57:10;64662.34;;;16.13;100.00
6833;BME280;3454;42.654;23.378;2023-05-21T05:59:35;64684.03;;;16.35;100.00
6833;BME280;3454;42.654;23.378;2023-05-21T06:02:00;64700.56;;;16.50;94.67
6833;BME280;3454;42.654;23.378;2023-05-21T06:04:26;64698.31;;;16.48;98.75
6833;BME280;3454;42.654;23.378;2023-05-21T06:06:54;64710.81;;;16.57;99.92
6833;BME280;3454;42.654;23.378;2023-05-21T06:09:22;64711.56;;;16.60;98.28
6833;BME280;3454;42.654;23.378;2023-05-21T06:11:48;64740.22;;;16.87;89.32
6833;BME280;3454;42.654;23.378;2023-05-21T06:14:13;64733.06;;;16.80;92.10
6833;BME280;3454;42.654;23.378;2023-05-21T06:16:38;64725.88;;;16.73;92.93
6833;BME280;3454;42.654;23.378;2023-05-21T06:19:04;64745.91;;;16.94;89.73
6833;BME280;3454;42.654;23.378;2023-05-21T06:21:29;64751.22;;;16.97;88.34
6833;BME280;3454;42.654;23.378;2023-05-21T06:23:55;64751.22;;;16.97;88.87
6833;BME280;3454;42.654;23.378;2023-05-21T06:26:20;64764.22;;;17.06;85.58
6833;BME280;3454;42.654;23.378;2023-05-21T06:28:48;64761.13;;;17.06;89.97
6833;BME280;3454;42.654;23.378;2023-05-21T06:31:13;64753.63;;;17.01;90.15
6833;BME280;3454;42.654;23.378;2023-05-21T06:33:40;64759.69;;;17.07;88.35
6833;BME280;3454;42.654;23.378;2023-05-21T06:36:06;64788.13;;;17.30;83.07
6833;BME280;3454;42.654;23.378;2023-05-21T06:38:32;64785.56;;;17.30;83.25
6833;BME280;3454;42.654;23.378;2023-05-21T06:40:58;64768.28;;;17.12;83.81
6833;BME280;3454;42.654;23.378;2023-05-21T06:43:23;64778.41;;;17.24;84.52
6833;BME280;3454;42.654;23.378;2023-05-21T06:45:49;64793.84;;;17.38;84.02
6833;BME280;3454;42.654;23.378;2023-05-21T06:48:14;64800.22;;;17.41;86.69
6833;BME280;3454;42.654;23.378;2023-05-21T06:50:42;64800.44;;;17.44;85.42
6833;BME280;3454;42.654;23.378;2023-05-21T06:53:08;64819.22;;;17.61;81.25
6833;BME280;3454;42.654;23.378;2023-05-21T06:55:33;64814.03;;;17.54;76.90
6833;BME280;3454;42.654;23.378;2023-05-21T06:57:58;64804.28;;;17.47;78.75
6833;BME280;3454;42.654;23.378;2023-05-21T07:00:24;64809.63;;;17.50;80.98
6833;BME280;3454;42.654;23.378;2023-05-21T07:02:50;64807.63;;;17.50;80.28
6833;BME280;3454;42.654;23.378;2023-05-21T07:05:16;64799.88;;;17.43;84.64
6833;BME280;3454;42.654;23.378;2023-05-21T07:07:41;64809.28;;;17.52;80.63
6833;BME280;3454;42.654;23.378;2023-05-21T07:10:07;64812.59;;;17.55;96.20
6833;BME280;3454;42.654;23.378;2023-05-21T07:12:33;64828.72;;;17.65;80.34
6833;BME280;3454;42.654;23.378;2023-05-21T07:14:58;64819.22;;;17.61;83.33
6833;BME280;3454;42.654;23.378;2023-05-21T07:17:23;64814.81;;;17.57;81.49
6833;BME280;3454;42.654;23.378;2023-05-21T07:19:49;64838.50;;;17.79;82.19
6833;BME280;3454;42.654;23.378;2023-05-21T07:22:15;64845.44;;;17.83;83.29
6833;BME280;3454;42.654;23.378;2023-05-21T07:24:40;64842.00;;;17.84;78.76
6833;BME280;3454;42.654;23.378;2023-05-21T07:27:06;64848.41;;;17.88;78.93
6833;BME280;3454;42.654;23.378;2023-05-21T07:29:32;64856.47;;;17.93;77.43
6833;BME280;3454;42.654;23.378;2023-05-21T07:31:58;64841.78;;;17.82;78.97
6833;BME280;3454;42.654;23.378;2023-05-21T07:34:23;64835.72;;;17.76;80.97
6833;BME280;3454;42.654;23.378;2023-05-21T07:36:48;64856.13;;;17.95;79.60
6833;BME280;3454;42.654;23.378;2023-05-21T07:39:14;64873.56;;;18.08;80.77
6833;BME280;3454;42.654;23.378;2023-05-21T07:41:39;64891.97;;;18.27;80.66
6833;BME280;3454;42.654;23.378;2023-05-21T07:44:05;64918.81;;;18.50;80.15
6833;BME280;3454;42.654;23.378;2023-05-21T07:46:30;64945.28;;;18.74;77.80
6833;BME280;3454;42.654;23.378;2023-05-21T07:48:56;64957.06;;;18.87;79.01
6833;BME280;3454;42.654;23.378;2023-05-21T07:51:21;64969.75;;;18.98;76.09
6833;BME280;3454;42.654;23.378;2023-05-21T07:53:47;64988.53;;;19.15;75.48
6833;BME280;3454;42.654;23.378;2023-05-21T07:56:13;64990.72;;;19.17;73.00
6833;BME280;3454;42.654;23.378;2023-05-21T07:58:38;65010.97;;;19.34;69.64
6833;BME280;3454;42.654;23.378;2023-05-21T08:01:04;65003.41;;;19.29;67.37
6833;BME280;3454;42.654;23.378;2023-05-21T08:03:30;64986.88;;;19.14;62.45
6833;BME280;3454;42.654;23.378;2023-05-21T08:05:55;65006.72;;;19.32;64.07
6833;BME280;3454;42.654;23.378;2023-05-21T08:08:21;65015.03;;;19.40;62.24
6833;BME280;3454;42.654;23.378;2023-05-21T08:10:48;65021.66;;;19.46;61.66
6833;BME280;3454;42.654;23.378;2023-05-21T08:13:14;65047.63;;;19.69;58.37
6833;BME280;3454;42.654;23.378;2023-05-21T08:15:40;65061.75;;;19.80;60.05
6833;BME280;3454;42.654;23.378;2023-05-21T08:18:06;65071.91;;;19.91;59.92
6833;BME280;3454;42.654;23.378;2023-05-21T08:20:31;65091.78;;;20.09;60.23
6833;BME280;3454;42.654;23.378;2023-05-21T08:22:58;65098.41;;;20.16;62.14
6833;BME280;3454;42.654;23.378;2023-05-21T08:25:26;65126.59;;;20.41;57.78
6833;BME280;3454;42.654;23.378;2023-05-21T08:27:53;65105.59;;;20.22;58.46
6833;BME280;3454;42.654;23.378;2023-05-21T08:30:18;65103.97;;;20.21;55.05
6833;BME280;3454;42.654;23.378;2023-05-21T08:32:44;65084.06;;;20.02;57.32
6833;BME280;3454;42.654;23.378;2023-05-21T08:35:09;65067.84;;;19.85;55.51
6833;BME280;3454;42.654;23.378;2023-05-21T08:37:35;65060.09;;;19.78;55.45
6833;BME280;3454;42.654;23.378;2023-05-21T08:40:00;65059.75;;;19.80;56.41
6833;BME280;3454;42.654;23.378;2023-05-21T08:42:45;65066.38;;;19.86;56.41
6833;BME280;3454;42.654;23.378;2023-05-21T08:45:12;65084.41;;;20.00;57.12
6833;BME280;3454;42.654;23.378;2023-05-21T08:47:41;65083.84;;;20.00;59.87
6833;BME280;3454;42.654;23.378;2023-05-21T08:50:13;65113.16;;;20.27;55.48
6833;BME280;3454;42.654;23.378;2023-05-21T08:52:39;65132.47;;;20.44;56.78
6833;BME280;3454;42.654;23.378;2023-05-21T08:55:06;65152.94;;;20.63;53.41
6833;BME280;3454;42.654;23.378;2023-05-21T08:57:33;65176.88;;;20.87;56.61
6833;BME280;3454;42.654;23.378;2023-05-21T08:59:59;65163.63;;;20.75;54.47
6833;BME280;3454;42.654;23.378;2023-05-21T09:02:26;65156.25;;;20.66;54.37
6833;BME280;3454;42.654;23.378;2023-05-21T09:04:52;65131.59;;;20.46;55.44
6833;BME280;3454;42.654;23.378;2023-05-21T09:07:23;65108.72;;;20.23;56.30
6833;BME280;3454;42.654;23.378;2023-05-21T09:12:23;65146.50;;;20.59;58.72
6833;BME280;3454;42.654;23.378;2023-05-21T09:14:51;65166.59;;;20.80;55.80
6833;BME280;3454;42.654;23.378;2023-05-21T09:17:16;65175.03;;;20.83;54.16
6833;BME280;3454;42.654;23.378;2023-05-21T09:20:06;65212.84;;;21.20;54.25
6833;BME280;3454;42.654;23.378;2023-05-21T09:22:39;65223.34;;;21.29;48.43
6833;BME280;3454;42.654;23.378;2023-05-21T09:25:06;65220.03;;;21.26;48.06
6833;BME280;3454;42.654;23.378;2023-05-21T09:27:35;65215.97;;;21.20;50.09
6833;BME280;3454;42.654;23.378;2023-05-21T09:30:02;65212.84;;;21.20;53.36
6833;BME280;3454;42.654;23.378;2023-05-21T09:32:27;65185.72;;;20.95;47.71
6833;BME280;3454;42.654;23.378;2023-05-21T09:34:53;65213.63;;;21.23;47.88
6833;BME280;3454;42.654;23.378;2023-05-21T09:37:20;65201.78;;;21.10;47.02
6833;BME280;3454;42.654;23.378;2023-05-21T09:39:47;65236.63;;;21.41;45.67
6833;BME280;3454;42.654;23.378;2023-05-21T09:42:13;65219.47;;;21.26;43.15
6833;BME280;3454;42.654;23.378;2023-05-21T09:44:42;65215.63;;;21.22;44.71
6833;BME280;3454;42.654;23.378;2023-05-21T09:47:07;65220.41;;;21.24;44.25
6833;BME280;3454;42.654;23.378;2023-05-21T09:49:35;65224.47;;;21.30;46.37
6833;BME280;3454;42.654;23.378;2023-05-21T09:52:01;65269.25;;;21.71;47.23
6833;BME280;3454;42.654;23.378;2023-05-21T09:54:31;65333.47;;;22.29;49.67
6833;BME280;3454;42.654;23.378;2023-05-21T09:56:59;65362.47;;;22.58;49.92
6833;BME280;3454;42.654;23.378;2023-05-21T09:59:37;65371.69;;;22.64;45.09
6833;BME280;3454;42.654;23.378;2023-05-21T10:02:02;65375.34;;;22.65;45.08
6833;BME280;3454;42.654;23.378;2023-05-21T10:04:38;65369.47;;;22.62;42.51
6833;BME280;3454;42.654;23.378;2023-05-21T10:07:04;65370.00;;;22.63;40.69
6833;BME280;3454;42.654;23.378;2023-05-21T10:09:30;65359.13;;;22.55;41.15
6833;BME280;3454;42.654;23.378;2023-05-21T10:11:56;65355.59;;;22.49;42.32
6833;BME280;3454;42.654;23.378;2023-05-21T10:14:24;65384.97;;;22.76;44.06
6833;BME280;3454;42.654;23.378;2023-05-21T10:16:53;65361.34;;;22.57;46.30
6833;BME280;3454;42.654;23.378;2023-05-21T10:19:19;65284.97;;;21.88;45.59
6833;BME280;3454;42.654;23.378;2023-05-21T10:21:44;65291.63;;;21.94;46.15
6833;BME280;3454;42.654;23.378;2023-05-21T10:24:10;65266.50;;;21.68;44.26
6833;BME280;3454;42.654;23.378;2023-05-21T10:26:38;65259.31;;;21.62;44.31
6833;BME280;3454;42.654;23.378;2023-05-21T10:29:06;65231.09;;;21.36;42.40
6833;BME280;3454;42.654;23.378;2023-05-21T10:31:32;65209.19;;;21.19;44.26
6833;BME280;3454;42.654;23.378;2023-05-21T10:33:59;65210.44;;;21.15;46.43
6833;BME280;3454;42.654;23.378;2023-05-21T10:36:29;65193.72;;;21.05;46.59
6833;BME280;3454;42.654;23.378;2023-05-21T10:39:01;65253.78;;;21.57;46.41
6833;BME280;3454;42.654;23.378;2023-05-21T10:41:33;65303.03;;;22.02;45.04
6833;BME280;3454;42.654;23.378;2023-05-21T10:52:38;65223.00;;;21.31;46.26
6833;BME280;3454;42.654;23.378;2023-05-21T10:58:35;65183.53;;;20.93;48.08
6833;BME280;3454;42.654;23.378;2023-05-21T11:01:03;65138.22;;;20.52;47.93
6833;BME280;3454;42.654;23.378;2023-05-21T11:03:30;65138.22;;;20.52;47.98
6833;BME280;3454;42.654;23.378;2023-05-21T11:05:56;65127.72;;;20.42;49.51
6833;BME280;3454;42.654;23.378;2023-05-21T11:08:24;65111.34;;;20.30;49.38
6833;BME280;3454;42.654;23.378;2023-05-21T11:10:54;65127.16;;;20.42;47.34
6833;BME280;3454;42.654;23.378;2023-05-21T11:13:20;65137.66;;;20.51;59.91
6833;BME280;3454;42.654;23.378;2023-05-21T11:21:02;65232.19;;;21.37;51.50
6833;BME280;3454;42.654;23.378;2023-05-21T11:23:54;65243.47;;;21.50;48.77
6833;BME280;3454;42.654;23.378;2023-05-21T11:26:24;65224.47;;;21.30;48.75
6833;BME280;3454;42.654;23.378;2023-05-21T11:29:10;65207.50;;;21.17;50.50
6833;BME280;3454;42.654;23.378;2023-05-21T11:31:36;65178.00;;;20.88;48.66
6833;BME280;3454;42.654;23.378;2023-05-21T11:36:40;65136.00;;;20.50;49.16
6833;BME280;3454;42.654;23.378;2023-05-21T11:41:58;65118.34;;;20.34;52.10
6833;BME280;3454;42.654;23.378;2023-05-21T11:44:41;65107.28;;;20.24;52.77
6833;BME280;3454;42.654;23.378;2023-05-21T11:47:08;65089.59;;;20.07;50.43
6833;BME280;3454;42.654;23.378;2023-05-21T11:49:35;65098.97;;;20.16;53.28
6833;BME280;3454;42.654;23.378;2023-05-21T11:52:02;65091.44;;;20.12;53.59
6833;BME280;3454;42.654;23.378;2023-05-21T11:54:29;65059.75;;;19.80;53.32
6833;BME280;3454;42.654;23.378;2023-05-21T11:57:01;65076.69;;;19.93;56.30
6833;BME280;3454;42.654;23.378;2023-05-21T11:59:27;65073.56;;;19.93;55.74
6833;BME280;3454;42.654;23.378;2023-05-21T12:01:53;65077.78;;;19.94;55.36
6833;BME280;3454;42.654;23.378;2023-05-21T12:04:19;65065.81;;;19.86;55.16
6833;BME280;3454;42.654;23.378;2023-05-21T12:06:45;65058.66;;;19.79;54.83
6833;BME280;3454;42.654;23.378;2023-05-21T12:09:12;65042.78;;;19.60;56.90
6833;BME280;3454;42.654;23.378;2023-05-21T12:11:39;65027.19;;;19.51;58.21
6833;BME280;3454;42.654;23.378;2023-05-21T12:14:09;65027.75;;;19.51;59.25
6833;BME280;3454;42.654;23.378;2023-05-21T12:16:35;65030.50;;;19.54;59.44
6833;BME280;3454;42.654;23.378;2023-05-21T12:19:02;65029.53;;;19.48;57.81
6833;BME280;3454;42.654;23.378;2023-05-21T12:21:31;65029.94;;;19.53;58.49
6833;BME280;3454;42.654;23.378;2023-05-21T12:23:57;65042.66;;;19.65;60.15
6833;BME280;3454;42.654;23.378;2023-05-21T12:26:23;65028.84;;;19.52;61.62
6833;BME280;3454;42.654;23.378;2023-05-21T12:28:54;65017.25;;;19.42;61.76
6833;BME280;3454;42.654;23.378;2023-05-21T12:31:21;65014.28;;;19.37;63.31
6833;BME280;3454;42.654;23.378;2023-05-21T12:33:50;65011.16;;;19.36;63.62
6833;BME280;3454;42.654;23.378;2023-05-21T12:36:27;65020.00;;;19.44;63.04
6833;BME280;3454;42.654;23.378;2023-05-21T12:38:54;65018.34;;;19.43;62.76
6833;BME280;3454;42.654;23.378;2023-05-21T12:41:20;65024.41;;;19.48;62.48
6833;BME280;3454;42.654;23.378;2023-05-21T12:43:47;65031.38;;;19.52;63.27
6833;BME280;3454;42.654;23.378;2023-05-21T12:46:15;65022.22;;;19.46;62.84
6833;BME280;3454;42.654;23.378;2023-05-21T12:48:54;65022.78;;;19.47;63.91
6833;BME280;3454;42.654;23.378;2023-05-21T12:51:22;65008.97;;;19.34;61.95
6833;BME280;3454;42.654;23.378;2023-05-21T12:53:48;65044.28;;;19.66;58.93
6833;BME280;3454;42.654;23.378;2023-05-21T12:56:14;65037.66;;;19.60;60.23
6833;BME280;3454;42.654;23.378;2023-05-21T12:58:41;65044.44;;;19.62;61.99
6833;BME280;3454;42.654;23.378;2023-05-21T13:03:32;65043.75;;;19.66;62.10
6833;BME280;3454;42.654;23.378;2023-05-21T13:05:58;65052.03;;;19.73;60.29
6833;BME280;3454;42.654;23.378;2023-05-21T13:08:24;65057.53;;;19.78;61.17
6833;BME280;3454;42.654;23.378;2023-05-21T13:10:49;65059.75;;;19.80;60.11
6833;BME280;3454;42.654;23.378;2023-05-21T13:13:15;65061.22;;;19.79;59.96
6833;BME280;3454;42.654;23.378;2023-05-21T13:15:40;65080.19;;;19.99;58.93
6833;BME280;3454;42.654;23.378;2023-05-21T13:18:06;65088.81;;;20.04;59.23
6833;BME280;3454;42.654;23.378;2023-05-21T13:20:32;65088.81;;;20.04;59.97
6833;BME280;3454;42.654;23.378;2023-05-21T13:22:57;65086.25;;;20.04;59.68
6833;BME280;3454;42.654;23.378;2023-05-21T13:25:24;65086.25;;;20.04;57.55
6833;BME280;3454;42.654;23.378;2023-05-21T13:27:52;65093.44;;;20.11;57.23
6833;BME280;3454;42.654;23.378;2023-05-21T13:30:19;65102.06;;;20.17;58.71
6833;BME280;3454;42.654;23.378;2023-05-21T13:32:46;65106.84;;;20.19;57.85